createdAt,value
2022-07-30T00:02:43.836Z,18.4
2022-07-30T00:05:31.429Z,18.4
2022-07-30T00:08:18.970Z,18.4
2022-07-30T00:11:06.772Z,18.3
2022-07-30T00:13:56.030Z,18.3
2022-07-30T00:16:47.207Z,18.3
2022-07-30T00:19:35.426Z,18.2
2022-07-30T00:22:24.903Z,18.2
2022-07-30T00:25:13.632Z,18.2
2022-07-30T00:28:03.702Z,18.2
2022-07-30T00:30:54.991Z,18.2
2022-07-30T00:33:43.747Z,18.2
2022-07-30T00:36:31.589Z,18.2
2022-07-30T00:39:19.476Z,18.2
2022-07-30T00:42:06.954Z,18.2
2022-07-30T00:44:54.579Z,18.1
2022-07-30T00:47:42.059Z,18.1
2022-07-30T00:50:30.799Z,18.1
2022-07-30T00:53:18.455Z,18.1
2022-07-30T00:56:06.099Z,18
2022-07-30T00:58:53.539Z,18
2022-07-30T01:01:41.003Z,18
2022-07-30T01:04:28.488Z,18
2022-07-30T01:07:17.212Z,17.9
2022-07-30T01:10:04.981Z,17.9
2022-07-30T01:12:55.753Z,17.8
2022-07-30T01:15:43.787Z,17.8
2022-07-30T01:18:31.476Z,17.8
2022-07-30T01:22:33.044Z,17.8
2022-07-30T01:25:33.605Z,17.8
2022-07-30T01:28:40.891Z,17.7
2022-07-30T01:31:33.862Z,17.7
2022-07-30T01:34:22.660Z,17.7
2022-07-30T01:37:11.531Z,17.6
2022-07-30T01:40:00.506Z,17.6
2022-07-30T01:42:49.201Z,17.5
2022-07-30T01:45:42.049Z,17.5
2022-07-30T01:48:32.968Z,17.5
2022-07-30T01:51:25.441Z,17.5
2022-07-30T01:54:23.814Z,17.4
2022-07-30T01:57:17.039Z,17.4
2022-07-30T02:00:06.515Z,17.4
2022-07-30T02:02:56.180Z,17.4
2022-07-30T02:05:44.340Z,17.3
2022-07-30T02:08:38.611Z,17.3
2022-07-30T02:11:30.021Z,17.2
2022-07-30T02:15:00.127Z,17.2
2022-07-30T02:17:59.768Z,17.2
2022-07-30T02:20:55.587Z,17.2
2022-07-30T02:23:48.367Z,17.2
2022-07-30T02:26:37.548Z,17.2
2022-07-30T02:29:27.238Z,17.2
2022-07-30T02:32:18.431Z,17.2
2022-07-30T02:35:08.580Z,17.2
2022-07-30T02:38:02.199Z,17.2
2022-07-30T02:40:51.583Z,17.2
2022-07-30T02:43:41.003Z,17.2
2022-07-30T02:46:29.091Z,17.2
2022-07-30T02:49:17.423Z,17.2
2022-07-30T02:52:07.909Z,17.3
2022-07-30T02:54:58.195Z,17.2
2022-07-30T02:57:47.823Z,17.3
2022-07-30T03:00:37.375Z,17.2
2022-07-30T03:03:26.327Z,17.2
2022-07-30T03:06:15.955Z,17.2
2022-07-30T03:09:04.773Z,17.2
2022-07-30T03:11:54.678Z,17.1
2022-07-30T03:14:43.153Z,17.1
2022-07-30T03:17:30.912Z,17.1
2022-07-30T03:20:24.788Z,17.1
2022-07-30T03:23:16.225Z,17.1
2022-07-30T03:26:04.903Z,17
2022-07-30T03:28:54.560Z,17
2022-07-30T03:31:43.679Z,17.1
2022-07-30T03:34:33.555Z,17
2022-07-30T03:37:22.979Z,17
2022-07-30T03:40:12.336Z,17
2022-07-30T03:43:01.076Z,17
2022-07-30T03:45:49.315Z,17
2022-07-30T03:48:40.094Z,17
2022-07-30T03:51:30.632Z,17
2022-07-30T03:54:22.123Z,16.9
2022-07-30T03:57:10.451Z,16.9
2022-07-30T04:00:03.380Z,16.9
2022-07-30T04:02:57.329Z,16.9
2022-07-30T04:05:44.771Z,16.9
2022-07-30T04:08:32.167Z,17
2022-07-30T04:11:19.622Z,17
2022-07-30T04:14:28.791Z,17
2022-07-30T04:17:25.995Z,17
2022-07-30T04:20:21.603Z,17.1
2022-07-30T04:23:11.473Z,17.1
2022-07-30T04:26:00.561Z,17.2
2022-07-30T04:28:48.184Z,17.2
2022-07-30T04:31:40.734Z,17.2
2022-07-30T04:34:28.823Z,17.2
2022-07-30T04:37:16.869Z,17.3
2022-07-30T04:40:06.475Z,17.3
2022-07-30T04:42:55.069Z,17.3
2022-07-30T04:45:42.897Z,17.4
2022-07-30T04:48:30.392Z,17.4
2022-07-30T04:51:18.107Z,17.4
2022-07-30T04:54:15.308Z,17.5
2022-07-30T04:57:05.375Z,17.5
2022-07-30T04:59:55.221Z,17.6
2022-07-30T05:02:42.968Z,17.6
2022-07-30T05:05:32.833Z,17.7
2022-07-30T05:08:21.244Z,17.8
2022-07-30T05:11:09.737Z,17.8
2022-07-30T05:13:58.140Z,17.9
2022-07-30T05:16:45.577Z,17.9
2022-07-30T05:19:33.268Z,17.9
2022-07-30T05:22:20.977Z,18
2022-07-30T05:25:16.291Z,18
2022-07-30T05:28:04.343Z,18.1
2022-07-30T05:30:51.843Z,18.1
2022-07-30T05:33:43.430Z,18.2
2022-07-30T05:36:31.082Z,18.2
2022-07-30T05:39:19.001Z,18.3
2022-07-30T05:42:06.484Z,18.3
2022-07-30T05:44:54.104Z,18.3
2022-07-30T05:47:41.732Z,18.3
2022-07-30T05:50:29.247Z,18.4
2022-07-30T05:53:16.736Z,18.4
2022-07-30T05:56:04.374Z,18.4
2022-07-30T05:58:52.229Z,18.5
2022-07-30T06:01:39.710Z,18.5
2022-07-30T06:04:27.650Z,18.6
2022-07-30T06:07:15.941Z,18.6
2022-07-30T06:10:03.676Z,18.6
2022-07-30T06:12:52.640Z,18.7
2022-07-30T06:15:40.197Z,18.7
2022-07-30T06:18:28.035Z,18.7
2022-07-30T06:21:16.261Z,18.8
2022-07-30T06:24:05.163Z,18.8
2022-07-30T06:26:53.973Z,18.8
2022-07-30T06:29:42.183Z,18.9
2022-07-30T06:32:29.755Z,19
2022-07-30T06:35:19.272Z,19.1
2022-07-30T06:38:07.992Z,19.2
2022-07-30T06:41:00.550Z,19.2
2022-07-30T06:43:50.229Z,19.3
2022-07-30T06:46:37.983Z,19.3
2022-07-30T06:49:25.849Z,19.4
2022-07-30T06:52:18.639Z,19.5
2022-07-30T06:55:07.041Z,19.6
2022-07-30T06:57:54.817Z,19.6
2022-07-30T07:00:42.341Z,19.6
2022-07-30T07:03:39.548Z,19.7
2022-07-30T07:06:28.095Z,19.7
2022-07-30T07:09:15.557Z,19.8
2022-07-30T07:12:03.011Z,19.9
2022-07-30T07:14:51.168Z,20
2022-07-30T07:17:38.988Z,20
2022-07-30T07:20:26.836Z,20.1
2022-07-30T07:23:14.999Z,20.1
2022-07-30T07:26:02.384Z,20.2
2022-07-30T07:28:49.950Z,20.3
2022-07-30T07:32:05.023Z,20.4
2022-07-30T07:34:55.523Z,20.5
2022-07-30T07:37:42.965Z,20.6
2022-07-30T07:40:30.636Z,20.7
2022-07-30T07:43:18.081Z,20.8
2022-07-30T07:46:05.808Z,20.8
2022-07-30T07:48:53.601Z,20.9
2022-07-30T07:51:48.038Z,20.9
2022-07-30T07:54:36.117Z,20.9
2022-07-30T07:57:23.895Z,21
2022-07-30T08:00:13.073Z,21
2022-07-30T08:03:02.482Z,21.1
2022-07-30T08:05:56.875Z,21.2
2022-07-30T08:08:53.809Z,21.2
2022-07-30T08:11:41.398Z,21.3
2022-07-30T08:14:28.922Z,21.3
2022-07-30T08:17:16.423Z,21.4
2022-07-30T08:20:04.841Z,21.4
2022-07-30T08:22:53.882Z,21.5
2022-07-30T08:25:44.518Z,21.5
2022-07-30T08:28:35.966Z,21.6
2022-07-30T08:31:24.379Z,21.7
2022-07-30T08:34:13.325Z,21.8
2022-07-30T08:37:00.928Z,21.8
2022-07-30T08:39:48.600Z,21.9
2022-07-30T08:42:37.155Z,22
2022-07-30T08:45:34.718Z,22.1
2022-07-30T08:48:24.025Z,22.2
2022-07-30T08:51:14.497Z,22.3
2022-07-30T08:54:02.362Z,22.4
2022-07-30T08:56:50.911Z,22.5
2022-07-30T09:00:00.956Z,22.7
2022-07-30T09:02:52.743Z,22.8
2022-07-30T09:05:41.975Z,22.9
2022-07-30T09:08:29.593Z,23.1
2022-07-30T09:11:17.492Z,23.2
2022-07-30T09:14:08.558Z,23.3
2022-07-30T09:16:58.015Z,23.4
2022-07-30T09:19:45.640Z,23.5
2022-07-30T09:22:49.232Z,23.6
2022-07-30T09:25:38.713Z,23.6
2022-07-30T09:28:28.931Z,23.7
2022-07-30T09:31:19.096Z,23.6
2022-07-30T09:34:08.266Z,23.6
2022-07-30T09:37:10.307Z,23.7
2022-07-30T09:40:04.646Z,23.7
2022-07-30T09:42:58.143Z,23.6
2022-07-30T09:45:57.102Z,23.6
2022-07-30T09:48:46.286Z,23.5
2022-07-30T09:51:54.318Z,23.4
2022-07-30T09:54:51.548Z,23.4
2022-07-30T09:57:39.839Z,23.4
2022-07-30T10:00:42.462Z,23.4
2022-07-30T10:03:33.870Z,23.4
2022-07-30T10:06:30.094Z,23.4
2022-07-30T10:09:19.694Z,23.4
2022-07-30T10:12:13.986Z,23.4
2022-07-30T10:15:06.075Z,23.4
2022-07-30T10:17:56.224Z,23.4
2022-07-30T10:20:46.572Z,23.5
2022-07-30T10:23:34.768Z,23.4
2022-07-30T10:26:25.296Z,23.5
2022-07-30T10:29:18.302Z,23.5
2022-07-30T10:32:07.641Z,23.5
2022-07-30T10:34:58.446Z,23.5
2022-07-30T10:37:46.055Z,23.5
2022-07-30T10:40:39.413Z,23.5
2022-07-30T10:43:37.805Z,23.6
2022-07-30T10:46:59.502Z,23.6
2022-07-30T10:49:59.085Z,23.6
2022-07-30T10:52:52.487Z,23.6
2022-07-30T10:55:42.003Z,23.7
2022-07-30T10:58:29.499Z,23.7
2022-07-30T11:01:44.204Z,23.7
2022-07-30T11:04:55.985Z,23.7
2022-07-30T11:08:09.177Z,23.7
2022-07-30T11:12:02.140Z,23.7
2022-07-30T11:15:39.255Z,23.7
2022-07-30T11:18:39.602Z,23.6
2022-07-30T11:21:49.847Z,23.6
2022-07-30T11:25:13.105Z,23.5
2022-07-30T11:28:26.020Z,23.4
2022-07-30T11:31:30.673Z,23.4
2022-07-30T11:34:41.991Z,23.3
2022-07-30T11:37:32.621Z,23.2
2022-07-30T11:40:41.311Z,23.2
2022-07-30T11:43:55.467Z,23.1
2022-07-30T11:47:14.994Z,23
2022-07-30T11:50:04.124Z,22.9
2022-07-30T11:52:52.697Z,22.8
2022-07-30T11:55:42.327Z,22.7
2022-07-30T11:58:35.152Z,22.6
2022-07-30T12:01:24.825Z,22.6
2022-07-30T12:04:15.501Z,22.5
2022-07-30T12:07:04.106Z,22.5
2022-07-30T12:09:51.794Z,22.5
2022-07-30T12:12:39.188Z,22.5
2022-07-30T12:15:27.032Z,22.5
2022-07-30T12:18:26.448Z,22.6
2022-07-30T12:21:16.559Z,22.5
2022-07-30T12:24:05.762Z,22.6
2022-07-30T12:26:54.630Z,22.5
2022-07-30T12:29:50.072Z,22.5
2022-07-30T12:32:37.742Z,22.5
2022-07-30T12:35:25.478Z,22.5
2022-07-30T12:38:28.121Z,22.5
2022-07-30T12:41:29.559Z,22.5
2022-07-30T12:44:34.433Z,22.5
2022-07-30T12:47:24.483Z,22.4
2022-07-30T12:50:14.218Z,22.4
2022-07-30T12:53:02.897Z,22.4
2022-07-30T12:55:50.429Z,22.4
2022-07-30T12:58:37.837Z,22.4
2022-07-30T13:01:26.571Z,22.4
2022-07-30T13:04:31.725Z,22.4
2022-07-30T13:07:19.671Z,22.4
2022-07-30T13:10:07.095Z,22.4
2022-07-30T13:12:57.456Z,22.4
2022-07-30T13:15:54.139Z,22.4
2022-07-30T13:18:44.854Z,22.3
2022-07-30T13:21:32.685Z,22.3
2022-07-30T13:24:20.277Z,22.2
2022-07-30T13:27:08.047Z,22.1
2022-07-30T13:29:55.994Z,22
2022-07-30T13:32:43.529Z,21.9
2022-07-30T13:35:30.933Z,21.9
2022-07-30T13:38:18.506Z,21.8
2022-07-30T13:41:06.012Z,21.8
2022-07-30T13:43:53.826Z,21.7
2022-07-30T13:46:41.602Z,21.6
2022-07-30T13:49:29.280Z,21.5
2022-07-30T13:52:19.898Z,21.4
2022-07-30T13:55:07.258Z,21.4
2022-07-30T13:57:54.995Z,21.3
2022-07-30T14:00:43.170Z,21.3
2022-07-30T14:03:32.477Z,21.2
2022-07-30T14:06:20.445Z,21
2022-07-30T14:09:08.028Z,20.9
2022-07-30T14:11:55.417Z,20.8
2022-07-30T14:14:42.989Z,20.7
2022-07-30T14:17:30.416Z,20.7
2022-07-30T14:20:18.224Z,20.6
2022-07-30T14:23:06.230Z,20.6
2022-07-30T14:25:54.790Z,20.5
2022-07-30T14:28:42.213Z,20.4
2022-07-30T14:31:29.729Z,20.3
2022-07-30T14:34:17.218Z,20.3
2022-07-30T14:37:05.295Z,20.2
2022-07-30T14:39:53.054Z,20.1
2022-07-30T14:42:40.546Z,20
2022-07-30T14:45:28.645Z,20
2022-07-30T14:48:17.750Z,19.9
2022-07-30T14:51:17.889Z,19.9
2022-07-30T14:54:07.373Z,19.8
2022-07-30T14:56:58.541Z,19.8
2022-07-30T14:59:46.384Z,19.7
2022-07-30T15:02:34.087Z,19.7
2022-07-30T15:05:21.604Z,19.6
2022-07-30T15:08:09.085Z,19.6
2022-07-30T15:11:01.028Z,19.5
2022-07-30T15:13:50.795Z,19.4
2022-07-30T15:16:38.542Z,19.4
2022-07-30T15:19:26.263Z,19.4
2022-07-30T15:22:15.014Z,19.4
2022-07-30T15:25:02.900Z,19.3
2022-07-30T15:27:51.679Z,19.3
2022-07-30T15:30:39.183Z,19.3
2022-07-30T15:33:27.036Z,19.3
2022-07-30T15:36:16.009Z,19.3
2022-07-30T15:39:03.628Z,19.3
2022-07-30T15:41:52.182Z,19.3
2022-07-30T15:44:48.413Z,19.3
2022-07-30T15:47:36.495Z,19.3
2022-07-30T15:50:23.923Z,19.3
2022-07-30T15:53:17.501Z,19.3
2022-07-30T15:56:05.064Z,19.3
2022-07-30T15:58:52.688Z,19.2
2022-07-30T16:01:40.356Z,19.2
2022-07-30T16:04:31.378Z,19.2
2022-07-30T16:07:19.716Z,19.2
2022-07-30T16:10:07.181Z,19.2
2022-07-30T16:12:55.496Z,19.2
2022-07-30T16:15:44.310Z,19.2
2022-07-30T16:18:31.740Z,19.2
2022-07-30T16:21:19.483Z,19.1
2022-07-30T16:24:08.380Z,19.1
2022-07-30T16:26:55.713Z,19.1
2022-07-30T16:29:43.245Z,19.1
2022-07-30T16:32:30.749Z,19
2022-07-30T16:35:18.417Z,19
2022-07-30T16:38:05.910Z,19
2022-07-30T16:40:53.613Z,18.9
2022-07-30T16:43:41.195Z,18.9
2022-07-30T16:46:28.909Z,18.8
2022-07-30T16:49:16.439Z,18.8
2022-07-30T16:52:04.394Z,18.8
2022-07-30T16:54:51.997Z,18.8
2022-07-30T16:57:39.604Z,18.8
2022-07-30T17:00:27.602Z,18.8
2022-07-30T17:03:19.830Z,18.7
2022-07-30T17:06:09.222Z,18.7
2022-07-30T17:08:56.842Z,18.7
2022-07-30T17:11:47.237Z,18.7
2022-07-30T17:14:39.762Z,18.7
2022-07-30T17:17:27.692Z,18.6
2022-07-30T17:20:16.094Z,18.6
2022-07-30T17:23:03.506Z,18.6
2022-07-30T17:25:52.399Z,18.6
2022-07-30T17:28:40.098Z,18.6
2022-07-30T17:31:27.756Z,18.6
2022-07-30T17:34:15.457Z,18.5
2022-07-30T17:37:04.898Z,18.5
2022-07-30T17:40:27.353Z,18.4
2022-07-30T17:43:17.907Z,18.3
2022-07-30T17:46:05.276Z,18.3
2022-07-30T17:48:52.784Z,18.2
2022-07-30T17:51:40.217Z,18.2
2022-07-30T17:54:27.938Z,18.1
2022-07-30T17:57:15.832Z,18.1
2022-07-30T18:00:03.651Z,18.1
2022-07-30T18:02:54.202Z,18.1
2022-07-30T18:05:41.775Z,18.1
2022-07-30T18:08:29.344Z,18.1
2022-07-30T18:11:19.007Z,18.1
2022-07-30T18:14:06.679Z,18.1
2022-07-30T18:16:54.287Z,18.1
2022-07-30T18:19:43.137Z,18.1
2022-07-30T18:22:32.001Z,18.1
2022-07-30T18:25:19.746Z,18.1
2022-07-30T18:28:07.231Z,18.1
2022-07-30T18:30:54.701Z,18.1
2022-07-30T18:33:42.183Z,18.1
2022-07-30T18:36:29.834Z,18.1
2022-07-30T18:39:17.345Z,18.2
2022-07-30T18:42:05.170Z,18.2
2022-07-30T18:44:54.344Z,18.2
2022-07-30T18:47:41.794Z,18.1
2022-07-30T18:50:30.320Z,18.1
2022-07-30T18:53:17.729Z,18.1
2022-07-30T18:56:05.999Z,18.1
2022-07-30T18:58:53.596Z,18.1
2022-07-30T19:01:41.115Z,18.1
2022-07-30T19:04:28.697Z,18
2022-07-30T19:07:16.216Z,18
2022-07-30T19:10:04.522Z,18
2022-07-30T19:12:52.963Z,18
2022-07-30T19:15:41.191Z,18
2022-07-30T19:18:28.783Z,18
2022-07-30T19:21:16.194Z,18
2022-07-30T19:24:03.827Z,18
2022-07-30T19:26:52.952Z,17.9
2022-07-30T19:29:40.904Z,17.9
2022-07-30T19:32:29.438Z,17.9
2022-07-30T19:35:16.888Z,17.9
2022-07-30T19:38:04.536Z,17.8
2022-07-30T19:40:52.132Z,17.8
2022-07-30T19:43:40.089Z,17.9
2022-07-30T19:46:29.380Z,17.8
2022-07-30T19:49:17.338Z,17.9
2022-07-30T19:52:22.434Z,17.9
2022-07-30T19:55:30.509Z,17.8
2022-07-30T19:58:20.524Z,17.8
2022-07-30T20:01:08.436Z,17.8
2022-07-30T20:04:01.202Z,17.8
2022-07-30T20:06:49.874Z,17.8
2022-07-30T20:09:37.849Z,17.7
2022-07-30T20:12:26.630Z,17.7
2022-07-30T20:15:15.217Z,17.7
2022-07-30T20:18:03.312Z,17.7
2022-07-30T20:20:51.030Z,17.7
2022-07-30T20:23:39.653Z,17.7
2022-07-30T20:26:29.699Z,17.7
2022-07-30T20:29:19.314Z,17.7
2022-07-30T20:32:08.315Z,17.7
2022-07-30T20:34:55.832Z,17.7
2022-07-30T20:37:54.586Z,17.7
2022-07-30T20:40:44.696Z,17.7
2022-07-30T20:43:32.168Z,17.7
2022-07-30T20:46:20.110Z,17.7
2022-07-30T20:49:07.790Z,17.7
2022-07-30T20:51:57.633Z,17.6
2022-07-30T20:54:46.213Z,17.5
2022-07-30T20:57:57.214Z,17.5
2022-07-30T21:00:51.972Z,17.5
2022-07-30T21:03:39.369Z,17.5
2022-07-30T21:06:28.319Z,17.5
2022-07-30T21:09:16.585Z,17.4
2022-07-30T21:12:04.591Z,17.4
2022-07-30T21:14:52.454Z,17.4
2022-07-30T21:17:40.624Z,17.4
2022-07-30T21:20:28.889Z,17.3
2022-07-30T21:23:18.598Z,17.3
2022-07-30T21:26:13.430Z,17.3
2022-07-30T21:29:01.447Z,17.2
2022-07-30T21:32:01.894Z,17.2
2022-07-30T21:34:51.241Z,17.2
2022-07-30T21:37:42.848Z,17.2
2022-07-30T21:40:30.484Z,17.2
2022-07-30T21:43:17.947Z,17.2
2022-07-30T21:46:26.884Z,17.2
2022-07-30T21:49:15.623Z,17.2
2022-07-30T21:52:03.537Z,17.2
2022-07-30T21:54:52.577Z,17.2
2022-07-30T21:57:40.022Z,17.2
2022-07-30T22:00:27.656Z,17.2
2022-07-30T22:04:04.604Z,17.2
2022-07-30T22:06:55.914Z,17.2
2022-07-30T22:09:48.045Z,17.2
2022-07-30T22:12:35.713Z,17.2
2022-07-30T22:15:23.380Z,17.2
2022-07-30T22:18:14.484Z,17.2
2022-07-30T22:21:03.177Z,17.2
2022-07-30T22:23:58.224Z,17.2
2022-07-30T22:26:45.927Z,17.2
2022-07-30T22:29:38.251Z,17.2
2022-07-30T22:32:26.702Z,17.2
2022-07-30T22:35:16.438Z,17.2
2022-07-30T22:38:04.128Z,17.2
2022-07-30T22:40:51.839Z,17.1
2022-07-30T22:43:40.946Z,17.1
2022-07-30T22:46:30.952Z,17.1
2022-07-30T22:49:24.023Z,17.1
2022-07-30T22:52:33.565Z,17.1
2022-07-30T22:55:22.972Z,17.1
2022-07-30T22:58:11.936Z,17.1
2022-07-30T23:00:59.488Z,17.1
2022-07-30T23:03:48.147Z,17
2022-07-30T23:06:35.640Z,17
2022-07-30T23:09:23.000Z,17
2022-07-30T23:12:11.350Z,17
2022-07-30T23:14:59.048Z,17
2022-07-30T23:17:46.392Z,17.1
2022-07-30T23:20:33.969Z,17.1
2022-07-30T23:23:21.364Z,17
2022-07-30T23:26:08.838Z,17.1
2022-07-30T23:28:56.289Z,17
2022-07-30T23:31:43.704Z,17
2022-07-30T23:34:31.944Z,17
2022-07-30T23:37:19.296Z,17
2022-07-30T23:40:06.756Z,17
2022-07-30T23:42:54.999Z,16.9
2022-07-30T23:45:42.435Z,16.9
2022-07-30T23:48:30.051Z,16.9
2022-07-30T23:51:17.804Z,16.9
2022-07-30T23:54:05.262Z,16.9
2022-07-30T23:56:52.747Z,16.9
2022-07-30T23:59:41.884Z,16.9
